createdAt,value
2019-02-28T00:00:01.390Z,3.82
2019-02-28T00:02:33.059Z,3.81
2019-02-28T00:05:06.866Z,3.82
2019-02-28T00:07:39.539Z,3.78
2019-02-28T00:10:12.574Z,3.82
2019-02-28T00:12:48.065Z,3.78
2019-02-28T00:15:20.168Z,3.80
2019-02-28T00:17:53.663Z,3.82
2019-02-28T00:20:25.816Z,3.84
2019-02-28T00:22:57.561Z,3.85
2019-02-28T00:25:30.486Z,3.84
2019-02-28T00:28:03.482Z,3.85
2019-02-28T00:30:37.370Z,3.81
2019-02-28T00:33:13.086Z,3.76
2019-02-28T00:35:45.556Z,3.74
2019-02-28T00:38:18.765Z,3.72
2019-02-28T00:40:51.794Z,3.68
2019-02-28T00:43:25.119Z,3.66
2019-02-28T00:45:57.735Z,3.74
2019-02-28T00:48:30.645Z,3.73
2019-02-28T00:51:03.618Z,3.73
2019-02-28T00:53:37.367Z,3.70
2019-02-28T00:56:09.698Z,3.66
2019-02-28T00:58:42.872Z,3.61
2019-02-28T01:01:15.998Z,3.60
2019-02-28T01:03:48.641Z,3.55
2019-02-28T01:06:21.613Z,3.57
2019-02-28T01:08:56.138Z,3.60
2019-02-28T01:11:27.802Z,3.62
2019-02-28T01:14:01.504Z,3.62
2019-02-28T01:16:33.681Z,3.73
2019-02-28T01:19:08.945Z,3.77
2019-02-28T01:21:39.778Z,3.73
2019-02-28T01:24:12.740Z,3.71
2019-02-28T01:26:46.619Z,3.66
2019-02-28T01:29:20.502Z,3.62
2019-02-28T01:31:51.803Z,3.58
2019-02-28T01:34:24.988Z,3.52
2019-02-28T01:36:57.873Z,3.47
2019-02-28T01:39:30.910Z,3.42
2019-02-28T01:42:03.854Z,3.33
2019-02-28T01:44:36.858Z,3.22
2019-02-28T01:47:09.005Z,3.03
2019-02-28T01:49:43.027Z,3.03
2019-02-28T01:52:15.904Z,3.05
2019-02-28T01:54:49.018Z,3.05
2019-02-28T01:57:22.022Z,3.04
2019-02-28T01:59:55.097Z,3.04
2019-02-28T02:02:27.893Z,3.02
2019-02-28T02:05:00.969Z,2.97
2019-02-28T02:07:33.758Z,2.92
2019-02-28T02:10:14.262Z,2.87
2019-02-28T02:12:45.943Z,2.84
2019-02-28T02:15:17.939Z,2.80
2019-02-28T02:17:51.945Z,2.80
2019-02-28T02:20:26.308Z,2.78
2019-02-28T02:23:01.168Z,2.77
2019-02-28T02:25:37.101Z,2.73
2019-02-28T02:28:07.318Z,2.69
2019-02-28T02:30:40.243Z,2.67
2019-02-28T02:33:14.457Z,2.67
2019-02-28T02:35:47.333Z,2.53
2019-02-28T02:38:19.181Z,2.67
2019-02-28T02:40:59.025Z,2.68
2019-02-28T02:43:26.177Z,2.69
2019-02-28T02:45:59.082Z,2.69
2019-02-28T02:48:32.067Z,2.66
2019-02-28T02:51:10.654Z,2.65
2019-02-28T02:53:42.141Z,2.62
2019-02-28T02:56:14.132Z,2.62
2019-02-28T02:58:48.103Z,2.62
2019-02-28T03:01:23.284Z,2.63
2019-02-28T03:03:56.106Z,2.66
2019-02-28T03:06:29.210Z,2.71
2019-02-28T03:09:04.723Z,2.71
2019-02-28T03:11:37.362Z,2.70
2019-02-28T03:14:16.393Z,2.72
2019-02-28T03:16:46.172Z,2.73
2019-02-28T03:19:20.242Z,2.76
2019-02-28T03:21:55.921Z,2.75
2019-02-28T03:24:28.315Z,2.80
2019-02-28T03:27:00.286Z,2.80
2019-02-28T03:29:32.417Z,2.79
2019-02-28T03:32:06.240Z,2.79
2019-02-28T03:34:39.242Z,2.75
2019-02-28T03:37:11.462Z,2.68
2019-02-28T03:39:45.322Z,2.63
2019-02-28T03:42:19.450Z,2.57
2019-02-28T03:44:56.632Z,2.54
2019-02-28T03:47:26.631Z,2.50
2019-02-28T03:49:59.411Z,2.43
2019-02-28T03:52:32.426Z,2.36
2019-02-28T03:55:06.919Z,2.43
2019-02-28T03:57:39.364Z,2.45
2019-02-28T04:00:14.570Z,2.49
2019-02-28T04:02:46.405Z,2.49
2019-02-28T04:05:26.822Z,2.54
2019-02-28T04:07:55.057Z,2.62
2019-02-28T04:10:28.506Z,2.57
2019-02-28T04:13:00.614Z,2.54
2019-02-28T04:15:33.320Z,2.49
2019-02-28T04:18:07.497Z,2.45
2019-02-28T04:20:39.569Z,2.42
2019-02-28T04:23:12.567Z,2.43
2019-02-28T04:25:45.615Z,2.44
2019-02-28T04:28:19.109Z,2.42
2019-02-28T04:30:51.510Z,2.38
2019-02-28T04:33:24.487Z,2.34
2019-02-28T04:36:00.518Z,2.30
2019-02-28T04:38:33.526Z,2.30
2019-02-28T04:41:04.804Z,2.29
2019-02-28T04:43:36.686Z,2.28
2019-02-28T04:46:09.713Z,2.24
2019-02-28T04:48:45.564Z,2.25
2019-02-28T04:51:15.915Z,2.30
2019-02-28T04:53:47.274Z,2.32
2019-02-28T04:56:18.550Z,2.39
2019-02-28T04:58:51.601Z,2.41
2019-02-28T05:01:24.904Z,2.44
2019-02-28T05:03:59.246Z,2.58
2019-02-28T05:06:35.289Z,2.67
2019-02-28T05:09:10.688Z,2.85
2019-02-28T05:11:42.707Z,2.89
2019-02-28T05:14:15.671Z,2.93
2019-02-28T05:16:48.745Z,2.91
2019-02-28T05:19:20.725Z,2.84
2019-02-28T05:21:54.717Z,2.83
2019-02-28T05:24:27.770Z,2.79
2019-02-28T05:27:01.781Z,2.71
2019-02-28T05:29:33.360Z,2.74
2019-02-28T05:32:06.780Z,2.80
2019-02-28T05:34:39.763Z,2.75
2019-02-28T05:37:13.773Z,2.75
2019-02-28T05:39:47.522Z,2.70
2019-02-28T05:42:23.338Z,2.66
2019-02-28T05:44:55.786Z,2.82
2019-02-28T05:47:29.387Z,2.82
2019-02-28T05:50:02.012Z,2.85
2019-02-28T05:52:34.407Z,2.94
2019-02-28T05:55:08.410Z,2.96
2019-02-28T05:57:43.530Z,2.95
2019-02-28T06:00:16.535Z,2.99
2019-02-28T06:02:48.703Z,3.07
2019-02-28T06:05:22.142Z,3.19
2019-02-28T06:07:55.953Z,3.34
2019-02-28T06:10:28.498Z,3.40
2019-02-28T06:13:00.148Z,3.55
2019-02-28T06:15:34.291Z,3.59
2019-02-28T06:18:06.014Z,3.63
2019-02-28T06:20:38.443Z,3.68
2019-02-28T06:23:10.209Z,3.71
2019-02-28T06:25:43.179Z,3.78
2019-02-28T06:28:16.164Z,3.89
2019-02-28T06:30:49.168Z,4.00
2019-02-28T06:33:22.315Z,4.14
2019-02-28T06:35:55.131Z,4.33
2019-02-28T06:38:29.222Z,4.33
2019-02-28T06:41:04.230Z,4.45
2019-02-28T06:43:37.332Z,4.62
2019-02-28T06:46:12.769Z,4.72
2019-02-28T06:48:46.199Z,4.82
2019-02-28T06:51:19.200Z,4.86
2019-02-28T06:53:52.117Z,4.88
2019-02-28T06:56:25.292Z,4.91
2019-02-28T06:58:59.978Z,4.96
2019-02-28T07:01:33.805Z,5.00
2019-02-28T07:04:07.369Z,5.14
2019-02-28T07:06:40.205Z,5.19
2019-02-28T07:09:13.491Z,5.17
2019-02-28T07:11:46.296Z,5.22
2019-02-28T07:14:19.427Z,5.44
2019-02-28T07:16:52.310Z,5.51
2019-02-28T07:19:28.520Z,5.69
2019-02-28T07:22:01.400Z,5.74
2019-02-28T07:24:37.286Z,5.78
2019-02-28T07:27:09.822Z,5.92
2019-02-28T07:29:42.685Z,5.98
2019-02-28T07:32:15.373Z,6.07
2019-02-28T07:34:47.371Z,6.03
2019-02-28T07:37:22.058Z,5.97
2019-02-28T07:39:53.899Z,5.93
2019-02-28T07:42:25.429Z,5.87
2019-02-28T07:45:00.272Z,5.89
2019-02-28T07:47:32.514Z,5.84
2019-02-28T07:50:07.714Z,5.97
2019-02-28T07:52:38.521Z,6.10
2019-02-28T07:55:11.656Z,6.12
2019-02-28T07:57:44.846Z,6.44
2019-02-28T08:00:18.680Z,6.54
2019-02-28T08:02:52.563Z,6.44
2019-02-28T08:05:30.086Z,6.50
2019-02-28T08:07:59.530Z,6.58
2019-02-28T08:10:31.551Z,6.64
2019-02-28T08:13:05.042Z,6.71
2019-02-28T08:15:36.642Z,6.77
2019-02-28T08:18:09.577Z,7.01
2019-02-28T08:20:42.708Z,6.97
2019-02-28T08:23:18.255Z,7.02
2019-02-28T08:25:49.736Z,7.08
2019-02-28T08:28:24.974Z,7.14
2019-02-28T08:30:58.701Z,7.35
2019-02-28T08:33:31.864Z,7.43
2019-02-28T08:36:08.468Z,7.55
2019-02-28T08:38:39.930Z,7.73
2019-02-28T08:41:12.393Z,7.80
2019-02-28T08:43:47.829Z,8.02
2019-02-28T08:46:22.061Z,8.06
2019-02-28T08:48:56.857Z,8.14
2019-02-28T08:51:31.695Z,8.40
2019-02-28T08:54:06.064Z,8.52
2019-02-28T08:56:40.407Z,8.68
2019-02-28T08:59:18.445Z,8.95
2019-02-28T09:01:48.932Z,9.05
2019-02-28T09:04:21.905Z,9.29
2019-02-28T09:06:54.966Z,9.55
2019-02-28T09:09:31.671Z,9.96
2019-02-28T09:12:03.966Z,10.08
2019-02-28T09:14:36.998Z,10.26
2019-02-28T09:17:10.134Z,10.59
2019-02-28T09:19:43.015Z,10.76
2019-02-28T09:22:15.808Z,11.06
2019-02-28T09:24:49.063Z,11.15
2019-02-28T09:27:23.659Z,11.25
2019-02-28T09:29:57.811Z,11.31
2019-02-28T09:32:31.134Z,11.45
2019-02-28T09:35:06.389Z,11.42
2019-02-28T09:37:41.943Z,11.39
2019-02-28T09:40:16.164Z,11.47
2019-02-28T09:42:51.192Z,11.54
2019-02-28T09:45:25.081Z,11.66
2019-02-28T09:48:02.047Z,11.84
2019-02-28T09:50:35.380Z,11.90
2019-02-28T09:53:08.210Z,12.01
2019-02-28T09:55:40.251Z,12.04
2019-02-28T09:58:13.161Z,12.21
2019-02-28T10:00:46.839Z,12.27
2019-02-28T10:03:21.803Z,12.49
2019-02-28T10:05:54.228Z,12.57
2019-02-28T10:08:28.043Z,12.71
2019-02-28T10:11:02.070Z,12.69
2019-02-28T10:13:33.872Z,12.73
2019-02-28T10:16:07.121Z,12.83
2019-02-28T10:18:40.279Z,12.83
2019-02-28T10:21:13.301Z,12.95
2019-02-28T10:23:46.334Z,12.93
2019-02-28T10:26:19.567Z,12.82
2019-02-28T10:28:52.240Z,12.97
2019-02-28T10:31:35.163Z,13.06
2019-02-28T10:33:59.447Z,13.18
2019-02-28T10:36:33.359Z,13.23
2019-02-28T10:39:10.860Z,13.24
2019-02-28T10:41:43.416Z,13.17
2019-02-28T10:44:17.192Z,13.33
2019-02-28T10:46:53.502Z,13.62
2019-02-28T10:49:25.756Z,13.60
2019-02-28T10:51:59.340Z,13.73
2019-02-28T10:54:33.427Z,13.85
2019-02-28T10:57:07.675Z,14.07
2019-02-28T10:59:40.431Z,14.14
2019-02-28T11:02:18.949Z,14.25
2019-02-28T11:04:49.493Z,14.28
2019-02-28T11:07:22.476Z,14.21
2019-02-28T11:09:58.486Z,14.42
2019-02-28T11:12:29.062Z,14.40
2019-02-28T11:15:01.408Z,14.48
2019-02-28T11:17:34.318Z,14.69
2019-02-28T11:20:09.693Z,14.80
2019-02-28T11:22:43.877Z,14.86
2019-02-28T11:25:20.603Z,15.04
2019-02-28T11:27:53.768Z,15.33
2019-02-28T11:30:28.936Z,15.56
2019-02-28T11:33:04.524Z,15.66
2019-02-28T11:35:37.692Z,15.70
2019-02-28T11:38:10.767Z,15.82
2019-02-28T11:40:44.625Z,15.89
2019-02-28T11:43:18.775Z,16.04
2019-02-28T11:45:50.616Z,16.24
2019-02-28T11:48:23.676Z,16.38
2019-02-28T11:50:55.690Z,16.31
2019-02-28T11:53:28.767Z,16.49
2019-02-28T11:56:01.559Z,16.55
2019-02-28T11:58:34.062Z,16.76
2019-02-28T12:01:10.475Z,16.83
2019-02-28T12:03:42.875Z,16.72
2019-02-28T12:06:16.664Z,16.72
2019-02-28T12:08:50.299Z,16.82
2019-02-28T12:11:21.792Z,16.94
2019-02-28T12:13:55.213Z,17.02
2019-02-28T12:16:27.781Z,17.06
2019-02-28T12:19:04.919Z,17.15
2019-02-28T12:21:38.777Z,17.14
2019-02-28T12:24:10.672Z,17.13
2019-02-28T12:26:42.759Z,17.31
2019-02-28T12:29:19.802Z,17.46
2019-02-28T12:31:54.387Z,17.47
2019-02-28T12:34:28.855Z,17.20
2019-02-28T12:36:59.985Z,17.60
2019-02-28T12:39:33.363Z,17.75
2019-02-28T12:42:07.829Z,17.73
2019-02-28T12:44:39.884Z,17.66
2019-02-28T12:47:12.598Z,17.61
2019-02-28T12:49:44.152Z,17.61
2019-02-28T12:52:17.929Z,17.75
2019-02-28T12:54:51.226Z,17.79
2019-02-28T12:57:23.147Z,17.72
2019-02-28T12:59:55.943Z,17.71
2019-02-28T13:02:29.040Z,17.82
2019-02-28T13:05:02.987Z,17.87
2019-02-28T13:07:34.665Z,17.82
2019-02-28T13:10:07.790Z,17.96
2019-02-28T13:12:44.287Z,17.94
2019-02-28T13:15:14.975Z,17.88
2019-02-28T13:17:46.903Z,17.95
2019-02-28T13:20:22.743Z,17.78
2019-02-28T13:22:55.565Z,17.72
2019-02-28T13:25:30.085Z,17.74
2019-02-28T13:28:03.598Z,17.80
2019-02-28T13:30:39.845Z,17.82
2019-02-28T13:33:11.064Z,17.92
2019-02-28T13:35:47.438Z,17.94
2019-02-28T13:38:20.135Z,17.83
2019-02-28T13:40:55.873Z,17.89
2019-02-28T13:43:32.210Z,17.94
2019-02-28T13:46:04.240Z,18.01
2019-02-28T13:48:41.013Z,18.05
2019-02-28T13:51:15.851Z,18.02
2019-02-28T13:53:47.254Z,18.07
2019-02-28T13:56:21.371Z,18.03
2019-02-28T13:58:58.301Z,17.95
2019-02-28T14:01:31.157Z,17.92
2019-02-28T14:04:03.382Z,17.87
2019-02-28T14:06:34.769Z,17.89
2019-02-28T14:09:11.200Z,17.82
2019-02-28T14:11:45.061Z,17.95
2019-02-28T14:14:19.363Z,17.89
2019-02-28T14:16:52.336Z,18.00
2019-02-28T14:19:25.381Z,18.01
2019-02-28T14:21:58.343Z,18.09
2019-02-28T14:24:31.986Z,18.10
2019-02-28T14:27:04.337Z,18.11
2019-02-28T14:29:43.035Z,18.13
2019-02-28T14:32:15.321Z,18.12
2019-02-28T14:34:51.023Z,18.06
2019-02-28T14:37:25.430Z,18.10
2019-02-28T14:39:58.295Z,18.04
2019-02-28T14:42:30.474Z,18.12
2019-02-28T14:45:04.059Z,18.04
2019-02-28T14:47:37.789Z,18.04
2019-02-28T14:50:15.516Z,17.90
2019-02-28T14:52:52.505Z,17.94
2019-02-28T14:55:25.619Z,18.01
2019-02-28T14:57:59.626Z,17.92
2019-02-28T15:00:32.018Z,17.91
2019-02-28T15:03:04.510Z,17.87
2019-02-28T15:05:40.576Z,17.83
2019-02-28T15:08:16.268Z,17.87
2019-02-28T15:10:53.137Z,17.84
2019-02-28T15:13:30.438Z,17.77
2019-02-28T15:16:01.702Z,17.78
2019-02-28T15:18:35.734Z,17.74
2019-02-28T15:21:09.107Z,17.74
2019-02-28T15:23:47.648Z,17.68
2019-02-28T15:26:21.521Z,17.61
2019-02-28T15:28:53.803Z,17.52
2019-02-28T15:31:28.910Z,17.52
2019-02-28T15:34:05.494Z,17.55
2019-02-28T15:36:37.695Z,17.52
2019-02-28T15:39:10.237Z,17.42
2019-02-28T15:41:48.479Z,17.37
2019-02-28T15:44:25.681Z,17.38
2019-02-28T15:46:58.673Z,17.33
2019-02-28T15:49:32.784Z,17.32
2019-02-28T15:52:07.515Z,17.30
2019-02-28T15:54:46.387Z,17.20
2019-02-28T15:57:23.127Z,17.11
2019-02-28T15:59:59.076Z,17.00
2019-02-28T16:02:35.437Z,16.95
2019-02-28T16:05:08.571Z,16.96
2019-02-28T16:07:42.254Z,16.94
2019-02-28T16:10:16.443Z,16.85
2019-02-28T16:12:53.418Z,16.77
2019-02-28T16:15:27.877Z,16.72
2019-02-28T16:18:02.016Z,16.62
2019-02-28T16:20:33.660Z,16.57
2019-02-28T16:23:05.122Z,16.44
2019-02-28T16:25:38.418Z,16.39
2019-02-28T16:28:11.790Z,16.39
2019-02-28T16:30:44.027Z,16.24
2019-02-28T16:33:17.104Z,16.04
2019-02-28T16:35:51.411Z,15.92
2019-02-28T16:38:24.294Z,16.11
2019-02-28T16:40:57.649Z,16.08
2019-02-28T16:43:30.980Z,16.06
2019-02-28T16:46:05.011Z,15.95
2019-02-28T16:48:39.136Z,15.92
2019-02-28T16:51:12.335Z,15.91
2019-02-28T16:53:48.019Z,15.74
2019-02-28T16:56:18.915Z,15.63
2019-02-28T16:58:49.664Z,15.59
2019-02-28T17:01:22.581Z,15.39
2019-02-28T17:03:54.389Z,15.40
2019-02-28T17:06:26.506Z,15.27
2019-02-28T17:09:14.249Z,15.18
2019-02-28T17:11:54.696Z,15.24
2019-02-28T17:14:28.053Z,15.14
2019-02-28T17:17:08.628Z,15.04
2019-02-28T17:19:40.509Z,15.03
2019-02-28T17:22:12.878Z,14.96
2019-02-28T17:24:46.161Z,14.87
2019-02-28T17:27:38.682Z,14.88
2019-02-28T17:30:20.764Z,14.96
2019-02-28T17:32:51.572Z,14.92
2019-02-28T17:35:22.838Z,14.82
2019-02-28T17:37:59.846Z,14.72
2019-02-28T17:40:30.186Z,14.66
2019-02-28T17:43:04.498Z,14.72
2019-02-28T17:45:38.559Z,14.76
2019-02-28T17:48:26.266Z,14.81
2019-02-28T17:51:31.755Z,14.74
2019-02-28T17:55:12.006Z,14.72
2019-02-28T17:58:27.428Z,14.99
2019-02-28T18:01:29.930Z,14.97
2019-02-28T18:04:46.284Z,15.00
2019-02-28T18:08:01.402Z,14.98
2019-02-28T18:11:12.687Z,14.96
2019-02-28T18:14:19.870Z,15.05
2019-02-28T18:17:44.303Z,15.03
2019-02-28T18:20:46.818Z,14.90
2019-02-28T18:23:46.646Z,14.92
2019-02-28T18:26:45.637Z,15.00
2019-02-28T18:29:41.701Z,14.96
2019-02-28T18:32:15.112Z,14.82
2019-02-28T18:34:46.567Z,14.83
2019-02-28T18:37:20.737Z,14.94
2019-02-28T18:39:56.987Z,14.97
2019-02-28T18:42:30.690Z,14.94
2019-02-28T18:45:04.997Z,15.06
2019-02-28T18:47:39.848Z,15.09
2019-02-28T18:50:11.752Z,14.99
2019-02-28T18:52:45.852Z,14.99
2019-02-28T18:55:19.575Z,14.96
2019-02-28T18:57:53.789Z,14.92
2019-02-28T19:00:26.829Z,14.94
2019-02-28T19:03:00.565Z,14.94
2019-02-28T19:05:34.493Z,14.76
2019-02-28T19:08:07.751Z,14.81
2019-02-28T19:10:41.840Z,14.61
2019-02-28T19:13:13.331Z,14.56
2019-02-28T19:15:46.797Z,14.39
2019-02-28T19:18:18.759Z,14.36
2019-02-28T19:20:50.725Z,14.29
2019-02-28T19:23:22.980Z,14.21
2019-02-28T19:25:56.799Z,14.10
2019-02-28T19:28:30.761Z,14.13
2019-02-28T19:31:03.791Z,13.98
2019-02-28T19:33:35.310Z,13.80
2019-02-28T19:36:08.943Z,13.62
2019-02-28T19:38:44.336Z,13.53
2019-02-28T19:41:15.960Z,13.46
2019-02-28T19:43:49.784Z,13.21
2019-02-28T19:46:22.809Z,13.21
2019-02-28T19:48:56.950Z,13.14
2019-02-28T19:51:30.001Z,13.03
2019-02-28T19:54:04.030Z,12.95
2019-02-28T19:56:35.553Z,12.88
2019-02-28T19:59:08.000Z,12.86
2019-02-28T20:01:42.367Z,12.77
2019-02-28T20:04:15.582Z,12.84
2019-02-28T20:06:49.283Z,12.85
2019-02-28T20:09:21.846Z,12.81
2019-02-28T20:11:56.043Z,12.82
2019-02-28T20:14:30.082Z,12.81
2019-02-28T20:17:03.562Z,12.73
2019-02-28T20:19:35.244Z,12.66
2019-02-28T20:22:08.152Z,12.62
2019-02-28T20:24:41.094Z,12.55
2019-02-28T20:27:14.895Z,12.46
2019-02-28T20:29:55.100Z,12.40
2019-02-28T20:32:22.623Z,12.35
2019-02-28T20:34:55.988Z,12.32
2019-02-28T20:37:29.111Z,12.28
2019-02-28T20:40:02.098Z,12.34
2019-02-28T20:42:34.993Z,12.35
2019-02-28T20:45:09.646Z,12.35
2019-02-28T20:47:43.011Z,12.48
2019-02-28T20:50:22.081Z,12.40
2019-02-28T20:52:55.993Z,12.44
2019-02-28T20:55:27.384Z,12.50
2019-02-28T20:58:00.190Z,12.57
2019-02-28T21:00:34.195Z,12.68
2019-02-28T21:03:07.346Z,12.72
2019-02-28T21:05:41.103Z,12.79
2019-02-28T21:08:14.103Z,12.79
2019-02-28T21:10:45.445Z,13.00
2019-02-28T21:13:19.041Z,12.95
2019-02-28T21:15:52.159Z,12.87
2019-02-28T21:18:23.458Z,12.82
2019-02-28T21:20:57.645Z,12.83
2019-02-28T21:23:30.133Z,12.89
2019-02-28T21:26:03.249Z,12.85
2019-02-28T21:28:34.716Z,12.82
2019-02-28T21:31:08.299Z,12.76
2019-02-28T21:33:41.304Z,12.72
2019-02-28T21:36:16.870Z,12.68
2019-02-28T21:38:48.156Z,12.64
2019-02-28T21:41:23.966Z,12.60
2019-02-28T21:43:56.339Z,12.58
2019-02-28T21:46:29.328Z,12.61
2019-02-28T21:49:05.081Z,12.59
2019-02-28T21:51:38.334Z,12.52
2019-02-28T21:54:10.303Z,12.43
2019-02-28T21:56:43.332Z,12.35
2019-02-28T21:59:17.395Z,12.33
2019-02-28T22:01:50.520Z,12.31
2019-02-28T22:04:24.113Z,12.25
2019-02-28T22:06:55.444Z,12.18
2019-02-28T22:09:28.463Z,12.16
2019-02-28T22:12:04.184Z,12.10
2019-02-28T22:14:35.531Z,12.04
2019-02-28T22:17:08.485Z,11.98
2019-02-28T22:19:41.460Z,11.90
2019-02-28T22:22:13.469Z,11.81
2019-02-28T22:24:47.193Z,11.69
2019-02-28T22:27:20.488Z,11.58
2019-02-28T22:29:57.759Z,11.51
2019-02-28T22:32:36.473Z,11.46
2019-02-28T22:35:21.671Z,11.43
2019-02-28T22:37:54.891Z,11.40
2019-02-28T22:40:26.484Z,11.37
2019-02-28T22:42:59.602Z,11.36
2019-02-28T22:45:33.582Z,11.33
2019-02-28T22:48:07.768Z,11.23
2019-02-28T22:50:40.733Z,11.13
2019-02-28T22:53:16.279Z,11.03
2019-02-28T22:55:47.589Z,10.94
2019-02-28T22:58:20.703Z,10.88
2019-02-28T23:01:04.668Z,10.73
2019-02-28T23:03:37.556Z,10.73
2019-02-28T23:06:13.277Z,10.61
2019-02-28T23:08:44.604Z,10.48
2019-02-28T23:11:18.549Z,10.37
2019-02-28T23:13:50.672Z,10.29
2019-02-28T23:16:23.659Z,10.23
2019-02-28T23:18:56.644Z,10.17
2019-02-28T23:21:30.701Z,10.03
2019-02-28T23:24:06.226Z,10.03
2019-02-28T23:27:16.358Z,10.09
2019-02-28T23:29:52.538Z,10.09
2019-02-28T23:32:33.090Z,10.05
2019-02-28T23:35:08.595Z,10.07
2019-02-28T23:37:40.909Z,10.13
2019-02-28T23:40:14.942Z,10.24
2019-02-28T23:42:47.972Z,10.25
2019-02-28T23:45:20.922Z,10.23
2019-02-28T23:47:53.870Z,10.15
2019-02-28T23:50:26.869Z,10.06
2019-02-28T23:52:59.885Z,10.06
2019-02-28T23:55:34.064Z,10.12
2019-02-28T23:58:05.988Z,10.16
